トビリシ の空港の天気 - METARとTAF

トビリシ国際空港 ( UGTB / TBS ) - ジョージア トビリシ
飛行場実況気象(Metar)
観測時間07/16 10:30 GET (07/16 06:30 UTC)
風向・風速北西 11m/s
視程10km以上
天気現象
全天の8割程度の雲 雲底高度 1520m
気温22℃
湿度65%
気圧1008hPa
METARUGTB 160630Z 31021KT 9999 BKN050CB 22/15 Q1008 NOSIG
過去の天気等 Google飛行場航空写真 Wunderground天気予報

過去48時間のMETAR

飛行場予報(TAF)
発表時間: 7/16 09:00 GET (7/16 05:00 UTC)
予報対象時間: 16日10時 GET ~ 17日10時 GET
風向・風速北西 13m/s
視程10km以上
全天の4割程度の積乱雲 雲底高度 1520m
16日12時 GET ~ 16日20時 GET に 確率 40% で一時的に
天気現象雷雨
全天の8割程度の積乱雲 雲底高度 1220m
16日20時 GET ~ 16日22時 GET に徐々に
風向・風速北西 10m/s
なし
TAF UGTB 160500Z 1606/1706 32025KT 9999 SCT050CB TX27/1612Z TN18/1702Z
PROB40 TEMPO 1608/1616 TSRA BKN040CB
BECMG 1616/1618 32020KT NSC